PWSweather.com
Personal Weather Stations
Station Observations
NORTHPOLE1
Tombur Subdivision, North Pole, AK 99705

Tombur SubdivisionNorth Pole, AK 99705

Lat: 64.774039, Lon: -147.284862

Elevation: 434

Station Type: Davis Vantage Pro 2

http://kl7ac.com

Latest ConditionsUpdated 11:15:00 PM AKST Monday, Jul 27, 2015
Currently Today's Max Today's Min Today's Average
Temperature 54.6°F12.6°C 64.3°F17.9°C 54.6°F12.6°C 56.8°F13.8°C
Dew Point 54.0°F12.2°C 59.0°F15.0°C 53.1°F11.7°C 55.5°F13.1°C
Winds Calm Calm 3.0 mph WSW4.8 kmh WSW - 0.3 mph 0.5 kmh
Wind Gusts 1.0 mph1.6 kmh 12.0 mph19.3 kmh - -
Humidity 100% 100% 77% 96%
Pressure 29.61 in1002.7 mb 29.61 in1002.7 mb 29.50 in999.0 mb -
Hour Temp Dew Point Humidity Winds Wind Gusts Pressure Precip Precip Rate Daily Precip Total
11:15 PM 54.6°F12.6°C 54.0°F12.2°C 100% Calm Calm 1.0 mph1.6 kmh 29.61 in1002.7 mb 0.01 in0.3 mm 0.00 in0.0 mm 0.71 in18.0 mm
11:10 PM 54.7°F12.6°C 54.1°F12.3°C 100% Calm Calm 1.0 mph1.6 kmh 29.61 in1002.7 mb 0.01 in0.3 mm 0.00 in0.0 mm 0.71 in18.0 mm
11:05 PM 54.7°F12.6°C 54.1°F12.3°C 100% Calm Calm 3.0 mph4.8 kmh 29.61 in1002.7 mb 0.01 in0.3 mm 0.00 in0.0 mm 0.71 in18.0 mm
11:00 PM 54.8°F12.7°C 54.2°F12.3°C 100% Calm Calm 3.0 mph4.8 kmh 29.61 in1002.7 mb 0.01 in0.3 mm 0.00 in0.0 mm 0.71 in18.0 mm
10:55 PM 54.8°F12.7°C 54.2°F12.3°C 100% Calm Calm 3.0 mph4.8 kmh 29.61 in1002.7 mb 0.01 in0.3 mm 0.00 in0.0 mm 0.83 in21.1 mm
10:50 PM 54.8°F12.7°C 54.2°F12.3°C 100% 1.0 mph S1.6 kmh S 4.0 mph6.4 kmh 29.61 in1002.7 mb 0.01 in0.3 mm 0.00 in0.0 mm 0.83 in21.1 mm
10:45 PM 54.9°F12.7°C 54.3°F12.4°C 100% 1.0 mph S1.6 kmh S 4.0 mph6.4 kmh 29.61 in1002.7 mb 0.01 in0.3 mm 0.12 in3.0 mm 0.83 in21.1 mm
10:40 PM 55.0°F12.8°C 54.4°F12.4°C 100% 1.0 mph S1.6 kmh S 3.0 mph4.8 kmh 29.61 in1002.7 mb 0.00 in0.0 mm 0.00 in0.0 mm 0.82 in20.8 mm
10:35 PM 55.0°F12.8°C 54.4°F12.4°C 100% Calm Calm 2.0 mph3.2 kmh 29.61 in1002.7 mb 0.00 in0.0 mm 0.00 in0.0 mm 0.82 in20.8 mm
10:30 PM 55.1°F12.8°C 54.5°F12.5°C 100% Calm Calm 2.0 mph3.2 kmh 29.61 in1002.7 mb 0.00 in0.0 mm 0.00 in0.0 mm 0.82 in20.8 mm
10:25 PM 55.1°F12.8°C 54.5°F12.5°C 100% Calm Calm 2.0 mph3.2 kmh 29.61 in1002.7 mb 0.01 in0.3 mm 0.00 in0.0 mm 0.82 in20.8 mm
10:20 PM 55.1°F12.8°C 54.5°F12.5°C 100% Calm Calm 2.0 mph3.2 kmh 29.61 in1002.7 mb 0.01 in0.3 mm 0.00 in0.0 mm 0.82 in20.8 mm
10:15 PM 55.1°F12.8°C 54.5°F12.5°C 100% Calm Calm 1.0 mph1.6 kmh 29.60 in1002.4 mb 0.01 in0.3 mm 0.00 in0.0 mm 0.82 in20.8 mm
10:10 PM 55.2°F12.9°C 54.6°F12.6°C 100% Calm Calm 1.0 mph1.6 kmh 29.60 in1002.4 mb 0.01 in0.3 mm 0.00 in0.0 mm 0.82 in20.8 mm
10:05 PM 55.2°F12.9°C 54.6°F12.6°C 100% Calm Calm 1.0 mph1.6 kmh 29.60 in1002.4 mb 0.01 in0.3 mm 0.00 in0.0 mm 0.82 in20.8 mm
10:00 PM 55.3°F12.9°C 54.7°F12.6°C 100% Calm Calm 1.0 mph1.6 kmh 29.60 in1002.4 mb 0.01 in0.3 mm 0.00 in0.0 mm 0.82 in20.8 mm
09:55 PM 55.3°F12.9°C 54.7°F12.6°C 100% Calm Calm -- 29.60 in1002.4 mb 0.01 in0.3 mm 0.00 in0.0 mm 0.82 in20.8 mm
09:50 PM 55.4°F13.0°C 54.8°F12.7°C 100% Calm Calm 1.0 mph1.6 kmh 29.60 in1002.4 mb 0.01 in0.3 mm 0.00 in0.0 mm 0.82 in20.8 mm
09:45 PM 55.5°F13.1°C 54.9°F12.7°C 100% Calm Calm 3.0 mph4.8 kmh 29.60 in1002.4 mb 0.01 in0.3 mm 0.00 in0.0 mm 0.82 in20.8 mm
09:40 PM 55.7°F13.2°C 55.1°F12.8°C 100% 1.0 mph S1.6 kmh S 3.0 mph4.8 kmh 29.60 in1002.4 mb 0.01 in0.3 mm 0.00 in0.0 mm 0.82 in20.8 mm
09:35 PM 55.8°F13.2°C 55.2°F12.9°C 100% Calm Calm 3.0 mph4.8 kmh 29.60 in1002.4 mb 0.01 in0.3 mm 0.00 in0.0 mm 0.82 in20.8 mm
09:30 PM 56.0°F13.3°C 55.4°F13.0°C 100% Calm Calm 2.0 mph3.2 kmh 29.60 in1002.4 mb 0.01 in0.3 mm 0.12 in3.0 mm 0.82 in20.8 mm
09:25 PM 56.1°F13.4°C 55.5°F13.1°C 100% Calm Calm 2.0 mph3.2 kmh 29.60 in1002.4 mb 0.00 in0.0 mm 0.00 in0.0 mm 0.81 in20.6 mm
09:20 PM 56.1°F13.4°C 55.5°F13.1°C 100% Calm Calm -- 29.59 in1002.0 mb 0.00 in0.0 mm 0.00 in0.0 mm 0.81 in20.6 mm
09:15 PM 56.1°F13.4°C 55.5°F13.1°C 100% Calm Calm 3.0 mph4.8 kmh 29.59 in1002.0 mb 0.00 in0.0 mm 0.00 in0.0 mm 0.81 in20.6 mm
09:10 PM 56.2°F13.4°C 55.6°F13.1°C 100% 1.0 mph SW1.6 kmh SW 4.0 mph6.4 kmh 29.59 in1002.0 mb 0.00 in0.0 mm 0.00 in0.0 mm 0.81 in20.6 mm
09:05 PM 56.1°F13.4°C 55.5°F13.1°C 100% 1.0 mph WSW1.6 kmh WSW 4.0 mph6.4 kmh 29.59 in1002.0 mb 0.00 in0.0 mm 0.00 in0.0 mm 0.81 in20.6 mm
09:00 PM 56.1°F13.4°C 55.5°F13.1°C 100% Calm Calm 2.0 mph3.2 kmh 29.59 in1002.0 mb 0.00 in0.0 mm 0.00 in0.0 mm 0.81 in20.6 mm
08:55 PM 56.1°F13.4°C 55.5°F13.1°C 100% Calm Calm 2.0 mph3.2 kmh 29.59 in1002.0 mb 0.00 in0.0 mm 0.00 in0.0 mm 0.81 in20.6 mm
08:50 PM 56.0°F13.3°C 55.4°F13.0°C 100% Calm Calm 2.0 mph3.2 kmh 29.59 in1002.0 mb 0.00 in0.0 mm 0.00 in0.0 mm 0.81 in20.6 mm
08:45 PM 56.0°F13.3°C 55.4°F13.0°C 100% Calm Calm -- 29.59 in1002.0 mb 0.00 in0.0 mm 0.00 in0.0 mm 0.81 in20.6 mm
08:40 PM 56.0°F13.3°C 55.4°F13.0°C 100% Calm Calm -- 29.59 in1002.0 mb 0.00 in0.0 mm 0.00 in0.0 mm 0.81 in20.6 mm
08:35 PM 56.0°F13.3°C 55.4°F13.0°C 100% Calm Calm -- 29.59 in1002.0 mb 0.01 in0.3 mm 0.00 in0.0 mm 0.81 in20.6 mm
08:30 PM 55.9°F13.3°C 55.3°F12.9°C 100% Calm Calm -- 29.59 in1002.0 mb 0.01 in0.3 mm 0.00 in0.0 mm 0.81 in20.6 mm
08:25 PM 55.9°F13.3°C 55.3°F12.9°C 100% Calm Calm -- 29.59 in1002.0 mb 0.01 in0.3 mm 0.00 in0.0 mm 0.81 in20.6 mm
08:20 PM 55.9°F13.3°C 55.3°F12.9°C 100% Calm Calm -- 29.59 in1002.0 mb 0.01 in0.3 mm 0.00 in0.0 mm 0.81 in20.6 mm
08:15 PM 55.8°F13.2°C 55.2°F12.9°C 100% Calm Calm -- 29.59 in1002.0 mb 0.02 in0.5 mm 0.00 in0.0 mm 0.81 in20.6 mm
08:10 PM 55.8°F13.2°C 55.2°F12.9°C 100% Calm Calm -- 29.59 in1002.0 mb 0.02 in0.5 mm 0.00 in0.0 mm 0.81 in20.6 mm
08:05 PM 55.7°F13.2°C 55.1°F12.8°C 100% Calm Calm -- 29.59 in1002.0 mb 0.03 in0.8 mm 0.00 in0.0 mm 0.81 in20.6 mm
08:00 PM 55.7°F13.2°C 55.1°F12.8°C 100% Calm Calm 1.0 mph1.6 kmh 29.58 in1001.7 mb 0.03 in0.8 mm 0.00 in0.0 mm 0.81 in20.6 mm
07:55 PM 55.6°F13.1°C 55.0°F12.8°C 100% Calm Calm 1.0 mph1.6 kmh 29.58 in1001.7 mb 0.04 in1.0 mm 0.00 in0.0 mm 0.81 in20.6 mm
07:50 PM 55.5°F13.1°C 54.9°F12.7°C 100% Calm Calm 1.0 mph1.6 kmh 29.58 in1001.7 mb 0.04 in1.0 mm 0.00 in0.0 mm 0.81 in20.6 mm
07:45 PM 55.5°F13.1°C 54.9°F12.7°C 100% Calm Calm -- 29.58 in1001.7 mb 0.05 in1.3 mm 0.12 in3.0 mm 0.81 in20.6 mm
07:40 PM 55.4°F13.0°C 54.8°F12.7°C 100% Calm Calm -- 29.58 in1001.7 mb 0.04 in1.0 mm 0.00 in0.0 mm 0.80 in20.3 mm
07:35 PM 55.4°F13.0°C 54.8°F12.7°C 100% Calm Calm -- 29.58 in1001.7 mb 0.05 in1.3 mm 0.00 in0.0 mm 0.80 in20.3 mm
07:30 PM 55.3°F12.9°C 54.7°F12.6°C 100% Calm Calm -- 29.58 in1001.7 mb 0.06 in1.5 mm 0.00 in0.0 mm 0.80 in20.3 mm
07:25 PM 55.2°F12.9°C 54.6°F12.6°C 100% Calm Calm -- 29.58 in1001.7 mb 0.06 in1.5 mm 0.00 in0.0 mm 0.80 in20.3 mm
07:20 PM 55.2°F12.9°C 54.6°F12.6°C 100% Calm Calm -- 29.58 in1001.7 mb 0.07 in1.8 mm 0.00 in0.0 mm 0.80 in20.3 mm
07:15 PM 55.2°F12.9°C 54.6°F12.6°C 100% Calm Calm -- 29.58 in1001.7 mb 0.07 in1.8 mm 0.00 in0.0 mm 0.79 in20.1 mm
07:10 PM 55.2°F12.9°C 54.6°F12.6°C 100% Calm Calm -- 29.58 in1001.7 mb 0.08 in2.0 mm 0.12 in3.0 mm 0.79 in20.1 mm
07:05 PM 55.3°F12.9°C 54.7°F12.6°C 100% Calm Calm -- 29.57 in1001.4 mb 0.07 in1.8 mm 0.00 in0.0 mm 0.78 in19.8 mm
07:00 PM 55.3°F12.9°C 54.7°F12.6°C 100% Calm Calm -- 29.57 in1001.4 mb 0.08 in2.0 mm 0.00 in0.0 mm 0.78 in19.8 mm
06:55 PM 55.4°F13.0°C 54.6°F12.6°C 97% Calm Calm 2.0 mph3.2 kmh 29.57 in1001.4 mb 0.08 in2.0 mm 0.00 in0.0 mm 0.77 in19.6 mm
06:50 PM 55.5°F13.1°C 54.7°F12.6°C 97% Calm Calm 2.0 mph3.2 kmh 29.57 in1001.4 mb 0.09 in2.3 mm 0.12 in3.0 mm 0.77 in19.6 mm
06:45 PM 55.5°F13.1°C 54.7°F12.6°C 97% Calm Calm 2.0 mph3.2 kmh 29.57 in1001.4 mb 0.08 in2.0 mm 0.00 in0.0 mm 0.76 in19.3 mm
06:40 PM 55.7°F13.2°C 54.9°F12.7°C 97% Calm Calm 2.0 mph3.2 kmh 29.57 in1001.4 mb 0.08 in2.0 mm 0.12 in3.0 mm 0.76 in19.3 mm
06:35 PM 55.8°F13.2°C 55.0°F12.8°C 97% Calm Calm 2.0 mph3.2 kmh 29.57 in1001.4 mb 0.07 in1.8 mm 0.12 in3.0 mm 0.75 in19.1 mm
06:30 PM 56.0°F13.3°C 55.2°F12.9°C 97% Calm Calm 3.0 mph4.8 kmh 29.57 in1001.4 mb 0.06 in1.5 mm 0.00 in0.0 mm 0.74 in18.8 mm
06:25 PM 56.3°F13.5°C 55.5°F13.1°C 97% 1.0 mph WSW1.6 kmh WSW 3.0 mph4.8 kmh 29.57 in1001.4 mb 0.06 in1.5 mm 0.12 in3.0 mm 0.74 in18.8 mm
06:20 PM 56.6°F13.7°C 56.0°F13.3°C 100% 1.0 mph WSW1.6 kmh WSW 4.0 mph6.4 kmh 29.57 in1001.4 mb 0.05 in1.3 mm 0.12 in3.0 mm 0.73 in18.5 mm
06:15 PM 56.9°F13.8°C 56.3°F13.5°C 100% 1.0 mph WSW1.6 kmh WSW 4.0 mph6.4 kmh 29.57 in1001.4 mb 0.04 in1.0 mm 0.12 in3.0 mm 0.72 in18.3 mm
06:10 PM 57.0°F13.9°C 56.4°F13.6°C 100% 1.0 mph WSW1.6 kmh WSW 4.0 mph6.4 kmh 29.57 in1001.4 mb 0.03 in0.8 mm 0.00 in0.0 mm 0.71 in18.0 mm
06:05 PM 57.0°F13.9°C 56.4°F13.6°C 100% 1.0 mph SSW1.6 kmh SSW 3.0 mph4.8 kmh 29.57 in1001.4 mb 0.04 in1.0 mm 0.12 in3.0 mm 0.71 in18.0 mm
06:00 PM 57.0°F13.9°C 56.4°F13.6°C 100% 1.0 mph SSE1.6 kmh SSE 3.0 mph4.8 kmh 29.57 in1001.4 mb 0.03 in0.8 mm 0.00 in0.0 mm 0.70 in17.8 mm
05:55 PM 56.9°F13.8°C 56.1°F13.4°C 97% Calm Calm 2.0 mph3.2 kmh 29.57 in1001.4 mb 0.03 in0.8 mm 0.12 in3.0 mm 0.69 in17.5 mm
05:50 PM 56.9°F13.8°C 56.1°F13.4°C 97% Calm Calm 3.0 mph4.8 kmh 29.57 in1001.4 mb 0.02 in0.5 mm 0.00 in0.0 mm 0.68 in17.3 mm
05:45 PM 56.9°F13.8°C 56.1°F13.4°C 97% Calm Calm 3.0 mph4.8 kmh 29.57 in1001.4 mb 0.02 in0.5 mm 0.00 in0.0 mm 0.68 in17.3 mm
05:40 PM 57.0°F13.9°C 56.2°F13.4°C 97% Calm Calm 3.0 mph4.8 kmh 29.57 in1001.4 mb 0.02 in0.5 mm 0.00 in0.0 mm 0.68 in17.3 mm
05:35 PM 57.0°F13.9°C 56.4°F13.6°C 100% Calm Calm 3.0 mph4.8 kmh 29.57 in1001.4 mb 0.03 in0.8 mm 0.00 in0.0 mm 0.68 in17.3 mm
05:30 PM 57.0°F13.9°C 56.4°F13.6°C 100% Calm Calm 2.0 mph3.2 kmh 29.56 in1001.0 mb 0.03 in0.8 mm 0.00 in0.0 mm 0.68 in17.3 mm
05:25 PM 57.1°F13.9°C 56.3°F13.5°C 97% Calm Calm 2.0 mph3.2 kmh 29.57 in1001.4 mb 0.03 in0.8 mm 0.00 in0.0 mm 0.68 in17.3 mm
05:20 PM 57.1°F13.9°C 56.3°F13.5°C 97% Calm Calm 3.0 mph4.8 kmh 29.56 in1001.0 mb 0.04 in1.0 mm 0.00 in0.0 mm 0.68 in17.3 mm
05:15 PM 57.4°F14.1°C 56.6°F13.7°C 97% Calm Calm 3.0 mph4.8 kmh 29.56 in1001.0 mb 0.05 in1.3 mm 0.00 in0.0 mm 0.68 in17.3 mm
05:10 PM 57.5°F14.2°C 56.7°F13.7°C 97% Calm Calm 3.0 mph4.8 kmh 29.56 in1001.0 mb 0.06 in1.5 mm 0.00 in0.0 mm 0.68 in17.3 mm
05:05 PM 57.7°F14.3°C 56.9°F13.8°C 97% 1.0 mph SE1.6 kmh SE 4.0 mph6.4 kmh 29.56 in1001.0 mb 0.06 in1.5 mm 0.00 in0.0 mm 0.67 in17.0 mm
05:00 PM 57.8°F14.3°C 57.0°F13.9°C 97% 1.0 mph ESE1.6 kmh ESE 4.0 mph6.4 kmh 29.56 in1001.0 mb 0.08 in2.0 mm 0.00 in0.0 mm 0.67 in17.0 mm
04:55 PM 58.1°F14.5°C 57.3°F14.1°C 97% 1.0 mph SE1.6 kmh SE 4.0 mph6.4 kmh 29.55 in1000.7 mb 0.08 in2.0 mm 0.00 in0.0 mm 0.66 in16.8 mm
04:50 PM 58.3°F14.6°C 57.7°F14.3°C 100% Calm Calm 4.0 mph6.4 kmh 29.55 in1000.7 mb 0.10 in2.5 mm 0.00 in0.0 mm 0.66 in16.8 mm
04:45 PM 58.3°F14.6°C 57.7°F14.3°C 100% Calm Calm 2.0 mph3.2 kmh 29.56 in1001.0 mb 0.11 in2.8 mm 0.00 in0.0 mm 0.66 in16.8 mm
04:40 PM 58.3°F14.6°C 57.7°F14.3°C 100% Calm Calm 2.0 mph3.2 kmh 29.56 in1001.0 mb 0.13 in3.3 mm 0.12 in3.0 mm 0.66 in16.8 mm
04:35 PM 58.3°F14.6°C 57.5°F14.2°C 97% Calm Calm 2.0 mph3.2 kmh 29.56 in1001.0 mb 0.12 in3.0 mm 0.00 in0.0 mm 0.65 in16.5 mm
04:30 PM 58.4°F14.7°C 57.6°F14.2°C 97% Calm Calm 2.0 mph3.2 kmh 29.55 in1000.7 mb 0.13 in3.3 mm 0.00 in0.0 mm 0.65 in16.5 mm
04:25 PM 58.4°F14.7°C 57.6°F14.2°C 97% Calm Calm 2.0 mph3.2 kmh 29.55 in1000.7 mb 0.14 in3.6 mm 0.12 in3.0 mm 0.65 in16.5 mm
04:20 PM 58.5°F14.7°C 57.7°F14.3°C 97% Calm Calm -- 29.55 in1000.7 mb 0.13 in3.3 mm 0.12 in3.0 mm 0.64 in16.3 mm
04:15 PM 58.5°F14.7°C 57.7°F14.3°C 97% Calm Calm -- 29.55 in1000.7 mb 0.12 in3.0 mm 0.12 in3.0 mm 0.63 in16.0 mm
04:10 PM 58.6°F14.8°C 57.8°F14.3°C 97% Calm Calm -- 29.55 in1000.7 mb 0.11 in2.8 mm 0.00 in0.0 mm 0.62 in15.7 mm
04:05 PM 58.7°F14.8°C 57.9°F14.4°C 97% Calm Calm -- 29.55 in1000.7 mb 0.11 in2.8 mm 0.12 in3.0 mm 0.61 in15.5 mm
04:00 PM 58.7°F14.8°C 57.9°F14.4°C 97% Calm Calm -- 29.55 in1000.7 mb 0.10 in2.5 mm 0.01 in0.3 mm 0.59 in15.0 mm
03:55 PM 58.7°F14.8°C 57.9°F14.4°C 97% Calm Calm 1.0 mph1.6 kmh 29.55 in1000.7 mb 0.09 in2.3 mm 0.24 in6.1 mm 0.58 in14.7 mm
03:50 PM 58.7°F14.8°C 57.9°F14.4°C 97% Calm Calm 1.0 mph1.6 kmh 29.55 in1000.7 mb 0.07 in1.8 mm 0.12 in3.0 mm 0.56 in14.2 mm
03:45 PM 58.7°F14.8°C 57.9°F14.4°C 97% Calm Calm 1.0 mph1.6 kmh 29.55 in1000.7 mb 0.06 in1.5 mm 0.00 in0.0 mm 0.54 in13.7 mm
03:40 PM 58.7°F14.8°C 57.9°F14.4°C 97% Calm Calm -- 29.55 in1000.7 mb 0.06 in1.5 mm 0.00 in0.0 mm 0.53 in13.5 mm
03:35 PM 58.7°F14.8°C 57.9°F14.4°C 97% Calm Calm -- 29.56 in1001.0 mb 0.06 in1.5 mm 0.00 in0.0 mm 0.53 in13.5 mm
03:30 PM 58.7°F14.8°C 57.9°F14.4°C 97% Calm Calm -- 29.55 in1000.7 mb 0.06 in1.5 mm 0.12 in3.0 mm 0.52 in13.2 mm
03:25 PM 58.6°F14.8°C 57.8°F14.3°C 97% Calm Calm -- 29.55 in1000.7 mb 0.05 in1.3 mm 0.00 in0.0 mm 0.51 in13.0 mm
03:20 PM 58.6°F14.8°C 57.8°F14.3°C 97% Calm Calm 2.0 mph3.2 kmh 29.55 in1000.7 mb 0.05 in1.3 mm 0.00 in0.0 mm 0.51 in13.0 mm
03:15 PM 58.5°F14.7°C 57.7°F14.3°C 97% Calm Calm 3.0 mph4.8 kmh 29.55 in1000.7 mb 0.05 in1.3 mm 0.00 in0.0 mm 0.51 in13.0 mm
03:10 PM 58.4°F14.7°C 57.6°F14.2°C 97% Calm Calm 3.0 mph4.8 kmh 29.55 in1000.7 mb 0.05 in1.3 mm 0.12 in3.0 mm 0.51 in13.0 mm
03:05 PM 58.2°F14.6°C 57.4°F14.1°C 97% Calm Calm 1.0 mph1.6 kmh 29.55 in1000.7 mb 0.04 in1.0 mm 0.12 in3.0 mm 0.50 in12.7 mm
03:00 PM 58.2°F14.6°C 57.4°F14.1°C 97% Calm Calm 1.0 mph1.6 kmh 29.56 in1001.0 mb 0.03 in0.8 mm 0.00 in0.0 mm 0.49 in12.4 mm
02:55 PM 58.2°F14.6°C 57.4°F14.1°C 97% Calm Calm 2.0 mph3.2 kmh 29.56 in1001.0 mb 0.04 in1.0 mm 0.12 in3.0 mm 0.49 in12.4 mm
02:50 PM 58.2°F14.6°C 57.4°F14.1°C 97% Calm Calm 2.0 mph3.2 kmh 29.56 in1001.0 mb 0.03 in0.8 mm 0.00 in0.0 mm 0.48 in12.2 mm
02:45 PM 58.3°F14.6°C 57.5°F14.2°C 97% Calm Calm -- 29.56 in1001.0 mb 0.03 in0.8 mm 0.12 in3.0 mm 0.48 in12.2 mm
02:40 PM 58.2°F14.6°C 57.4°F14.1°C 97% Calm Calm 2.0 mph3.2 kmh 29.55 in1000.7 mb 0.02 in0.5 mm 0.00 in0.0 mm 0.47 in11.9 mm
02:35 PM 58.1°F14.5°C 57.0°F13.9°C 96% 1.0 mph WSW1.6 kmh WSW 3.0 mph4.8 kmh 29.55 in1000.7 mb 0.03 in0.8 mm 0.00 in0.0 mm 0.47 in11.9 mm
02:30 PM 58.1°F14.5°C 57.0°F13.9°C 96% 1.0 mph WSW1.6 kmh WSW 3.0 mph4.8 kmh 29.55 in1000.7 mb 0.03 in0.8 mm 0.00 in0.0 mm 0.46 in11.7 mm
02:25 PM 58.1°F14.5°C 57.0°F13.9°C 96% 1.0 mph WSW1.6 kmh WSW 3.0 mph4.8 kmh 29.55 in1000.7 mb 0.08 in2.0 mm 0.00 in0.0 mm 0.46 in11.7 mm
02:20 PM 58.1°F14.5°C 57.0°F13.9°C 96% 1.0 mph WSW1.6 kmh WSW 5.0 mph8.0 kmh 29.55 in1000.7 mb 0.17 in4.3 mm 0.00 in0.0 mm 0.46 in11.7 mm
02:15 PM 58.1°F14.5°C 57.0°F13.9°C 96% 3.0 mph WSW4.8 kmh WSW 6.0 mph9.7 kmh 29.55 in1000.7 mb 0.30 in7.6 mm 0.00 in0.0 mm 0.46 in11.7 mm
02:10 PM 58.1°F14.5°C 57.0°F13.9°C 96% 2.0 mph WSW3.2 kmh WSW 6.0 mph9.7 kmh 29.55 in1000.7 mb 0.35 in8.9 mm 0.00 in0.0 mm 0.46 in11.7 mm
02:05 PM 58.1°F14.5°C 56.7°F13.7°C 95% 1.0 mph WSW1.6 kmh WSW 6.0 mph9.7 kmh 29.55 in1000.7 mb 0.36 in9.1 mm 0.00 in0.0 mm 0.46 in11.7 mm
02:00 PM 58.1°F14.5°C 56.7°F13.7°C 95% 2.0 mph W3.2 kmh W 6.0 mph9.7 kmh 29.55 in1000.7 mb 0.36 in9.1 mm 0.01 in0.3 mm 0.46 in11.7 mm
01:55 PM 58.2°F14.6°C 56.8°F13.8°C 95% 2.0 mph W3.2 kmh W 7.0 mph11.3 kmh 29.54 in1000.3 mb 0.35 in8.9 mm 0.00 in0.0 mm 0.45 in11.4 mm
01:50 PM 58.4°F14.7°C 56.7°F13.7°C 94% 2.0 mph W3.2 kmh W 7.0 mph11.3 kmh 29.54 in1000.3 mb 0.35 in8.9 mm 0.00 in0.0 mm 0.45 in11.4 mm
01:45 PM 58.7°F14.8°C 57.0°F13.9°C 94% 2.0 mph WSW3.2 kmh WSW 6.0 mph9.7 kmh 29.54 in1000.3 mb 0.35 in8.9 mm 0.00 in0.0 mm 0.45 in11.4 mm
01:40 PM 59.0°F15.0°C 57.0°F13.9°C 93% 2.0 mph WSW3.2 kmh WSW 6.0 mph9.7 kmh 29.54 in1000.3 mb 0.35 in8.9 mm 0.12 in3.0 mm 0.45 in11.4 mm
01:35 PM 59.0°F15.0°C 57.0°F13.9°C 93% 2.0 mph W3.2 kmh W 6.0 mph9.7 kmh 29.54 in1000.3 mb 0.34 in8.6 mm 0.24 in6.1 mm 0.44 in11.2 mm
01:30 PM 59.5°F15.3°C 57.2°F14.0°C 92% 1.0 mph WNW1.6 kmh WNW 6.0 mph9.7 kmh 29.54 in1000.3 mb 0.32 in8.1 mm 0.48 in12.2 mm 0.42 in10.7 mm
01:25 PM 60.2°F15.7°C 57.3°F14.1°C 90% 3.0 mph WNW4.8 kmh WNW 6.0 mph9.7 kmh 29.54 in1000.3 mb 0.28 in7.1 mm 1.32 in33.5 mm 0.38 in9.7 mm
01:20 PM 61.3°F16.3°C 57.7°F14.3°C 88% 3.0 mph WNW4.8 kmh WNW 7.0 mph11.3 kmh 29.54 in1000.3 mb 0.17 in4.3 mm 1.32 in33.5 mm 0.27 in6.9 mm
01:15 PM 62.4°F16.9°C 58.2°F14.6°C 86% 3.0 mph NW4.8 kmh NW 12.0 mph19.3 kmh 29.53 in1000.0 mb 0.06 in1.5 mm 0.72 in18.3 mm 0.16 in4.1 mm
01:10 PM 63.3°F17.4°C 58.0°F14.4°C 83% 3.0 mph WNW4.8 kmh WNW 12.0 mph19.3 kmh 29.54 in1000.3 mb 0.00 in0.0 mm 0.00 in0.0 mm 0.10 in2.5 mm
01:05 PM 63.7°F17.6°C 58.1°F14.5°C 82% 2.0 mph WSW3.2 kmh WSW 6.0 mph9.7 kmh 29.53 in1000.0 mb 0.00 in0.0 mm 0.00 in0.0 mm 0.10 in2.5 mm
01:00 PM 63.9°F17.7°C 57.3°F14.1°C 79% 2.0 mph S3.2 kmh S 5.0 mph8.0 kmh 29.53 in1000.0 mb 0.00 in0.0 mm 0.00 in0.0 mm 0.10 in2.5 mm
12:55 PM 64.0°F17.8°C 57.7°F14.3°C 80% 1.0 mph SSE1.6 kmh SSE 5.0 mph8.0 kmh 29.53 in1000.0 mb 0.00 in0.0 mm 0.00 in0.0 mm 0.10 in2.5 mm
12:50 PM 64.2°F17.9°C 56.8°F13.8°C 77% 1.0 mph S1.6 kmh S 5.0 mph8.0 kmh 29.53 in1000.0 mb 0.00 in0.0 mm 0.00 in0.0 mm 0.10 in2.5 mm
12:45 PM 64.3°F17.9°C 57.3°F14.1°C 78% 2.0 mph S3.2 kmh S 5.0 mph8.0 kmh 29.53 in1000.0 mb 0.00 in0.0 mm 0.00 in0.0 mm 0.10 in2.5 mm
12:40 PM 64.3°F17.9°C 58.0°F14.4°C 80% 2.0 mph S3.2 kmh S 5.0 mph8.0 kmh 29.53 in1000.0 mb 0.00 in0.0 mm 0.00 in0.0 mm 0.10 in2.5 mm
12:35 PM 64.0°F17.8°C 58.4°F14.7°C 82% 1.0 mph S1.6 kmh S 5.0 mph8.0 kmh 29.53 in1000.0 mb 0.00 in0.0 mm 0.00 in0.0 mm 0.10 in2.5 mm
12:30 PM 63.3°F17.4°C 59.0°F15.0°C 86% 1.0 mph SSE1.6 kmh SSE 4.0 mph6.4 kmh 29.53 in1000.0 mb 0.00 in0.0 mm 0.00 in0.0 mm 0.10 in2.5 mm
12:25 PM 62.4°F16.9°C 58.2°F14.6°C 86% 1.0 mph S1.6 kmh S 4.0 mph6.4 kmh 29.53 in1000.0 mb 0.00 in0.0 mm 0.00 in0.0 mm 0.10 in2.5 mm
12:20 PM 62.1°F16.7°C 57.5°F14.2°C 85% 2.0 mph SSE3.2 kmh SSE 6.0 mph9.7 kmh 29.53 in1000.0 mb 0.00 in0.0 mm 0.00 in0.0 mm 0.10 in2.5 mm
12:15 PM 61.6°F16.4°C 58.0°F14.4°C 88% 2.0 mph SE3.2 kmh SE 6.0 mph9.7 kmh 29.53 in1000.0 mb 0.00 in0.0 mm 0.00 in0.0 mm 0.10 in2.5 mm
12:10 PM 61.1°F16.2°C 57.8°F14.3°C 89% 1.0 mph SE1.6 kmh SE 5.0 mph8.0 kmh 29.53 in1000.0 mb 0.00 in0.0 mm 0.00 in0.0 mm 0.10 in2.5 mm
12:05 PM 60.5°F15.8°C 57.2°F14.0°C 89% Calm Calm 3.0 mph4.8 kmh 29.53 in1000.0 mb 0.00 in0.0 mm 0.00 in0.0 mm 0.10 in2.5 mm
12:00 PM 60.3°F15.7°C 56.7°F13.7°C 88% Calm Calm 3.0 mph4.8 kmh 29.53 in1000.0 mb 0.00 in0.0 mm 0.00 in0.0 mm 0.10 in2.5 mm
11:55 AM 60.2°F15.7°C 56.9°F13.8°C 89% Calm Calm 1.0 mph1.6 kmh 29.53 in1000.0 mb 0.00 in0.0 mm 0.00 in0.0 mm 0.10 in2.5 mm
11:50 AM 60.0°F15.6°C 57.1°F13.9°C 90% Calm Calm 3.0 mph4.8 kmh 29.53 in1000.0 mb 0.00 in0.0 mm 0.00 in0.0 mm 0.10 in2.5 mm
11:45 AM 59.9°F15.5°C 57.0°F13.9°C 90% Calm Calm 3.0 mph4.8 kmh 29.53 in1000.0 mb 0.00 in0.0 mm 0.00 in0.0 mm 0.10 in2.5 mm
11:40 AM 59.9°F15.5°C 57.6°F14.2°C 92% Calm Calm 3.0 mph4.8 kmh 29.53 in1000.0 mb 0.00 in0.0 mm 0.00 in0.0 mm 0.10 in2.5 mm
11:35 AM 59.7°F15.4°C 57.1°F13.9°C 91% Calm Calm 3.0 mph4.8 kmh 29.53 in1000.0 mb 0.00 in0.0 mm 0.00 in0.0 mm 0.10 in2.5 mm
11:30 AM 59.5°F15.3°C 57.2°F14.0°C 92% Calm Calm 3.0 mph4.8 kmh 29.53 in1000.0 mb 0.00 in0.0 mm 0.00 in0.0 mm 0.10 in2.5 mm
11:25 AM 59.3°F15.2°C 56.7°F13.7°C 91% Calm Calm 3.0 mph4.8 kmh 29.53 in1000.0 mb 0.00 in0.0 mm 0.00 in0.0 mm 0.10 in2.5 mm
11:20 AM 59.1°F15.1°C 56.8°F13.8°C 92% Calm Calm 3.0 mph4.8 kmh 29.53 in1000.0 mb 0.00 in0.0 mm 0.00 in0.0 mm 0.10 in2.5 mm
11:15 AM 59.0°F15.0°C 56.7°F13.7°C 92% Calm Calm -- 29.53 in1000.0 mb 0.00 in0.0 mm 0.00 in0.0 mm 0.10 in2.5 mm
11:10 AM 59.0°F15.0°C 56.7°F13.7°C 92% Calm Calm 1.0 mph1.6 kmh 29.53 in1000.0 mb 0.00 in0.0 mm 0.00 in0.0 mm 0.10 in2.5 mm
11:05 AM 59.0°F15.0°C 57.0°F13.9°C 93% Calm Calm 1.0 mph1.6 kmh 29.53 in1000.0 mb 0.00 in0.0 mm 0.00 in0.0 mm 0.10 in2.5 mm
11:00 AM 58.9°F14.9°C 56.6°F13.7°C 92% Calm Calm 1.0 mph1.6 kmh 29.53 in1000.0 mb 0.00 in0.0 mm 0.00 in0.0 mm 0.10 in2.5 mm
10:55 AM 58.9°F14.9°C 56.9°F13.8°C 93% Calm Calm 1.0 mph1.6 kmh 29.53 in1000.0 mb 0.00 in0.0 mm 0.00 in0.0 mm 0.10 in2.5 mm
10:50 AM 58.9°F14.9°C 56.9°F13.8°C 93% Calm Calm 1.0 mph1.6 kmh 29.53 in1000.0 mb 0.00 in0.0 mm 0.00 in0.0 mm 0.10 in2.5 mm
10:45 AM 59.0°F15.0°C 57.0°F13.9°C 93% Calm Calm 2.0 mph3.2 kmh 29.53 in1000.0 mb 0.00 in0.0 mm 0.00 in0.0 mm 0.10 in2.5 mm
10:40 AM 58.9°F14.9°C 56.9°F13.8°C 93% Calm Calm 2.0 mph3.2 kmh 29.53 in1000.0 mb 0.00 in0.0 mm 0.00 in0.0 mm 0.10 in2.5 mm
10:35 AM 58.8°F14.9°C 57.1°F13.9°C 94% Calm Calm 2.0 mph3.2 kmh 29.53 in1000.0 mb 0.00 in0.0 mm 0.00 in0.0 mm 0.10 in2.5 mm
10:30 AM 58.6°F14.8°C 56.9°F13.8°C 94% Calm Calm 2.0 mph3.2 kmh 29.53 in1000.0 mb 0.00 in0.0 mm 0.00 in0.0 mm 0.10 in2.5 mm
10:25 AM 58.6°F14.8°C 57.2°F14.0°C 95% Calm Calm 1.0 mph1.6 kmh 29.53 in1000.0 mb 0.00 in0.0 mm 0.00 in0.0 mm 0.10 in2.5 mm
10:20 AM 58.4°F14.7°C 57.3°F14.1°C 96% Calm Calm 1.0 mph1.6 kmh 29.53 in1000.0 mb 0.00 in0.0 mm 0.00 in0.0 mm 0.10 in2.5 mm
10:15 AM 58.0°F14.4°C 56.9°F13.8°C 96% Calm Calm 1.0 mph1.6 kmh 29.53 in1000.0 mb 0.00 in0.0 mm 0.00 in0.0 mm 0.10 in2.5 mm
10:10 AM 57.6°F14.2°C 56.5°F13.6°C 96% Calm Calm 3.0 mph4.8 kmh 29.53 in1000.0 mb 0.00 in0.0 mm 0.00 in0.0 mm 0.10 in2.5 mm
10:05 AM 57.5°F14.2°C 56.7°F13.7°C 97% Calm Calm 3.0 mph4.8 kmh 29.53 in1000.0 mb 0.00 in0.0 mm 0.00 in0.0 mm 0.10 in2.5 mm
10:00 AM 57.3°F14.1°C 56.5°F13.6°C 97% Calm Calm -- 29.53 in1000.0 mb 0.00 in0.0 mm 0.00 in0.0 mm 0.10 in2.5 mm
09:55 AM 57.1°F13.9°C 56.3°F13.5°C 97% Calm Calm -- 29.53 in1000.0 mb 0.00 in0.0 mm 0.00 in0.0 mm 0.10 in2.5 mm
09:50 AM 56.9°F13.8°C 56.1°F13.4°C 97% Calm Calm 2.0 mph3.2 kmh 29.53 in1000.0 mb 0.00 in0.0 mm 0.00 in0.0 mm 0.10 in2.5 mm
09:45 AM 56.8°F13.8°C 56.0°F13.3°C 97% Calm Calm 2.0 mph3.2 kmh 29.53 in1000.0 mb 0.00 in0.0 mm 0.00 in0.0 mm 0.10 in2.5 mm
09:40 AM 56.8°F13.8°C 56.0°F13.3°C 97% Calm Calm 1.0 mph1.6 kmh 29.53 in1000.0 mb 0.00 in0.0 mm 0.00 in0.0 mm 0.10 in2.5 mm
09:35 AM 56.7°F13.7°C 55.9°F13.3°C 97% Calm Calm -- 29.53 in1000.0 mb 0.00 in0.0 mm 0.00 in0.0 mm 0.10 in2.5 mm
09:30 AM 56.6°F13.7°C 55.8°F13.2°C 97% Calm Calm 1.0 mph1.6 kmh 29.53 in1000.0 mb 0.00 in0.0 mm 0.00 in0.0 mm 0.10 in2.5 mm
09:25 AM 56.5°F13.6°C 55.7°F13.2°C 97% Calm Calm 1.0 mph1.6 kmh 29.53 in1000.0 mb 0.00 in0.0 mm 0.00 in0.0 mm 0.10 in2.5 mm
09:20 AM 56.4°F13.6°C 55.6°F13.1°C 97% Calm Calm 1.0 mph1.6 kmh 29.53 in1000.0 mb 0.00 in0.0 mm 0.00 in0.0 mm 0.10 in2.5 mm
09:15 AM 56.4°F13.6°C 55.6°F13.1°C 97% Calm Calm -- 29.53 in1000.0 mb 0.00 in0.0 mm 0.00 in0.0 mm 0.10 in2.5 mm
09:10 AM 56.3°F13.5°C 55.5°F13.1°C 97% Calm Calm -- 29.53 in1000.0 mb 0.00 in0.0 mm 0.00 in0.0 mm 0.10 in2.5 mm
09:05 AM 56.2°F13.4°C 55.4°F13.0°C 97% Calm Calm -- 29.53 in1000.0 mb 0.00 in0.0 mm 0.00 in0.0 mm 0.10 in2.5 mm
09:00 AM 56.2°F13.4°C 55.4°F13.0°C 97% Calm Calm 2.0 mph3.2 kmh 29.53 in1000.0 mb 0.00 in0.0 mm 0.00 in0.0 mm 0.10 in2.5 mm
08:55 AM 56.2°F13.4°C 55.4°F13.0°C 97% Calm Calm 2.0 mph3.2 kmh 29.52 in999.7 mb 0.00 in0.0 mm 0.00 in0.0 mm 0.10 in2.5 mm
08:50 AM 56.2°F13.4°C 55.4°F13.0°C 97% 1.0 mph E1.6 kmh E 2.0 mph3.2 kmh 29.52 in999.7 mb 0.00 in0.0 mm 0.00 in0.0 mm 0.10 in2.5 mm
08:45 AM 56.2°F13.4°C 55.4°F13.0°C 97% 1.0 mph E1.6 kmh E 3.0 mph4.8 kmh 29.52 in999.7 mb 0.00 in0.0 mm 0.00 in0.0 mm 0.10 in2.5 mm
08:40 AM 56.2°F13.4°C 55.4°F13.0°C 97% Calm Calm 3.0 mph4.8 kmh 29.52 in999.7 mb 0.00 in0.0 mm 0.00 in0.0 mm 0.10 in2.5 mm
08:35 AM 56.2°F13.4°C 55.4°F13.0°C 97% Calm Calm 4.0 mph6.4 kmh 29.53 in1000.0 mb 0.00 in0.0 mm 0.00 in0.0 mm 0.10 in2.5 mm
08:30 AM 56.2°F13.4°C 55.4°F13.0°C 97% 1.0 mph ESE1.6 kmh ESE 4.0 mph6.4 kmh 29.52 in999.7 mb 0.01 in0.3 mm 0.00 in0.0 mm 0.10 in2.5 mm
08:25 AM 56.3°F13.5°C 55.5°F13.1°C 97% Calm Calm 2.0 mph3.2 kmh 29.52 in999.7 mb 0.01 in0.3 mm 0.00 in0.0 mm 0.10 in2.5 mm
08:20 AM 56.2°F13.4°C 55.4°F13.0°C 97% Calm Calm 1.0 mph1.6 kmh 29.52 in999.7 mb 0.01 in0.3 mm 0.00 in0.0 mm 0.10 in2.5 mm
08:15 AM 56.3°F13.5°C 55.5°F13.1°C 97% Calm Calm 3.0 mph4.8 kmh 29.52 in999.7 mb 0.01 in0.3 mm 0.00 in0.0 mm 0.10 in2.5 mm
08:10 AM 56.3°F13.5°C 55.5°F13.1°C 97% Calm Calm 3.0 mph4.8 kmh 29.52 in999.7 mb 0.01 in0.3 mm 0.00 in0.0 mm 0.10 in2.5 mm
08:05 AM 56.2°F13.4°C 55.4°F13.0°C 97% Calm Calm 1.0 mph1.6 kmh 29.52 in999.7 mb 0.01 in0.3 mm 0.00 in0.0 mm 0.10 in2.5 mm
08:00 AM 56.1°F13.4°C 55.3°F12.9°C 97% Calm Calm 1.0 mph1.6 kmh 29.52 in999.7 mb 0.01 in0.3 mm 0.00 in0.0 mm 0.10 in2.5 mm
07:55 AM 56.0°F13.3°C 55.2°F12.9°C 97% Calm Calm 2.0 mph3.2 kmh 29.52 in999.7 mb 0.01 in0.3 mm 0.00 in0.0 mm 0.10 in2.5 mm
07:50 AM 55.9°F13.3°C 55.1°F12.8°C 97% Calm Calm 2.0 mph3.2 kmh 29.52 in999.7 mb 0.01 in0.3 mm 0.00 in0.0 mm 0.10 in2.5 mm
07:45 AM 55.7°F13.2°C 54.9°F12.7°C 97% Calm Calm 2.0 mph3.2 kmh 29.52 in999.7 mb 0.01 in0.3 mm 0.00 in0.0 mm 0.10 in2.5 mm
07:40 AM 55.6°F13.1°C 54.8°F12.7°C 97% Calm Calm -- 29.52 in999.7 mb 0.01 in0.3 mm 0.00 in0.0 mm 0.10 in2.5 mm
07:35 AM 55.5°F13.1°C 54.7°F12.6°C 97% Calm Calm -- 29.52 in999.7 mb 0.01 in0.3 mm 0.12 in3.0 mm 0.10 in2.5 mm
07:30 AM 55.5°F13.1°C 54.7°F12.6°C 97% Calm Calm -- 29.52 in999.7 mb 0.00 in0.0 mm 0.00 in0.0 mm 0.09 in2.3 mm
07:25 AM 55.5°F13.1°C 54.7°F12.6°C 97% Calm Calm -- 29.52 in999.7 mb 0.00 in0.0 mm 0.00 in0.0 mm 0.09 in2.3 mm
07:20 AM 55.5°F13.1°C 54.7°F12.6°C 97% Calm Calm -- 29.52 in999.7 mb 0.00 in0.0 mm 0.00 in0.0 mm 0.09 in2.3 mm
07:15 AM 55.5°F13.1°C 54.7°F12.6°C 97% Calm Calm -- 29.52 in999.7 mb 0.00 in0.0 mm 0.00 in0.0 mm 0.09 in2.3 mm
07:10 AM 55.4°F13.0°C 54.6°F12.6°C 97% Calm Calm -- 29.52 in999.7 mb 0.00 in0.0 mm 0.00 in0.0 mm 0.09 in2.3 mm
07:05 AM 55.4°F13.0°C 54.6°F12.6°C 97% Calm Calm -- 29.52 in999.7 mb 0.00 in0.0 mm 0.00 in0.0 mm 0.09 in2.3 mm
07:00 AM 55.3°F12.9°C 54.5°F12.5°C 97% Calm Calm -- 29.52 in999.7 mb 0.00 in0.0 mm 0.00 in0.0 mm 0.09 in2.3 mm
06:55 AM 55.3°F12.9°C 54.5°F12.5°C 97% Calm Calm -- 29.52 in999.7 mb 0.00 in0.0 mm 0.00 in0.0 mm 0.09 in2.3 mm
06:50 AM 55.2°F12.9°C 54.4°F12.4°C 97% Calm Calm -- 29.52 in999.7 mb 0.00 in0.0 mm 0.00 in0.0 mm 0.09 in2.3 mm
06:45 AM 55.1°F12.8°C 54.3°F12.4°C 97% Calm Calm -- 29.52 in999.7 mb 0.00 in0.0 mm 0.00 in0.0 mm 0.09 in2.3 mm
06:40 AM 55.1°F12.8°C 54.3°F12.4°C 97% Calm Calm -- 29.52 in999.7 mb 0.00 in0.0 mm 0.00 in0.0 mm 0.09 in2.3 mm
06:35 AM 55.1°F12.8°C 54.3°F12.4°C 97% Calm Calm -- 29.52 in999.7 mb 0.00 in0.0 mm 0.00 in0.0 mm 0.09 in2.3 mm
06:30 AM 55.1°F12.8°C 54.3°F12.4°C 97% Calm Calm -- 29.52 in999.7 mb 0.01 in0.3 mm 0.00 in0.0 mm 0.09 in2.3 mm
06:25 AM 55.1°F12.8°C 54.3°F12.4°C 97% Calm Calm -- 29.52 in999.7 mb 0.01 in0.3 mm 0.00 in0.0 mm 0.09 in2.3 mm
06:20 AM 55.0°F12.8°C 54.2°F12.3°C 97% Calm Calm -- 29.52 in999.7 mb 0.01 in0.3 mm 0.00 in0.0 mm 0.09 in2.3 mm
06:15 AM 55.0°F12.8°C 54.2°F12.3°C 97% Calm Calm -- 29.52 in999.7 mb 0.01 in0.3 mm 0.00 in0.0 mm 0.09 in2.3 mm
06:10 AM 55.0°F12.8°C 54.2°F12.3°C 97% Calm Calm -- 29.52 in999.7 mb 0.01 in0.3 mm 0.00 in0.0 mm 0.09 in2.3 mm
06:05 AM 55.0°F12.8°C 54.2°F12.3°C 97% Calm Calm -- 29.52 in999.7 mb 0.01 in0.3 mm 0.00 in0.0 mm 0.09 in2.3 mm
06:00 AM 55.0°F12.8°C 54.2°F12.3°C 97% Calm Calm -- 29.52 in999.7 mb 0.01 in0.3 mm 0.00 in0.0 mm 0.09 in2.3 mm
05:55 AM 55.0°F12.8°C 54.2°F12.3°C 97% Calm Calm -- 29.52 in999.7 mb 0.01 in0.3 mm 0.00 in0.0 mm 0.09 in2.3 mm
05:50 AM 55.0°F12.8°C 54.2°F12.3°C 97% Calm Calm -- 29.52 in999.7 mb 0.01 in0.3 mm 0.00 in0.0 mm 0.09 in2.3 mm
05:45 AM 55.1°F12.8°C 54.3°F12.4°C 97% Calm Calm -- 29.52 in999.7 mb 0.01 in0.3 mm 0.00 in0.0 mm 0.09 in2.3 mm
05:40 AM 55.1°F12.8°C 54.3°F12.4°C 97% Calm Calm -- 29.52 in999.7 mb 0.02 in0.5 mm 0.00 in0.0 mm 0.09 in2.3 mm
05:35 AM 55.1°F12.8°C 54.3°F12.4°C 97% Calm Calm -- 29.52 in999.7 mb 0.02 in0.5 mm 0.12 in3.0 mm 0.09 in2.3 mm
05:30 AM 55.1°F12.8°C 54.3°F12.4°C 97% Calm Calm -- 29.52 in999.7 mb 0.01 in0.3 mm 0.00 in0.0 mm 0.08 in2.0 mm
05:25 AM 55.1°F12.8°C 54.3°F12.4°C 97% Calm Calm -- 29.52 in999.7 mb 0.01 in0.3 mm 0.00 in0.0 mm 0.08 in2.0 mm
05:20 AM 55.1°F12.8°C 54.3°F12.4°C 97% Calm Calm -- 29.52 in999.7 mb 0.01 in0.3 mm 0.00 in0.0 mm 0.08 in2.0 mm
05:15 AM 55.1°F12.8°C 54.3°F12.4°C 97% Calm Calm -- 29.51 in999.3 mb 0.01 in0.3 mm 0.00 in0.0 mm 0.08 in2.0 mm
05:10 AM 55.1°F12.8°C 54.3°F12.4°C 97% Calm Calm -- 29.51 in999.3 mb 0.01 in0.3 mm 0.00 in0.0 mm 0.08 in2.0 mm
05:05 AM 55.0°F12.8°C 54.2°F12.3°C 97% Calm Calm -- 29.51 in999.3 mb 0.02 in0.5 mm 0.00 in0.0 mm 0.08 in2.0 mm
05:00 AM 55.0°F12.8°C 54.2°F12.3°C 97% Calm Calm -- 29.51 in999.3 mb 0.02 in0.5 mm 0.00 in0.0 mm 0.08 in2.0 mm
04:55 AM 55.0°F12.8°C 54.2°F12.3°C 97% Calm Calm -- 29.51 in999.3 mb 0.02 in0.5 mm 0.00 in0.0 mm 0.08 in2.0 mm
04:50 AM 55.0°F12.8°C 54.2°F12.3°C 97% Calm Calm -- 29.51 in999.3 mb 0.02 in0.5 mm 0.00 in0.0 mm 0.08 in2.0 mm
04:45 AM 55.0°F12.8°C 54.2°F12.3°C 97% Calm Calm -- 29.51 in999.3 mb 0.02 in0.5 mm 0.00 in0.0 mm 0.08 in2.0 mm
04:40 AM 54.9°F12.7°C 54.1°F12.3°C 97% Calm Calm -- 29.51 in999.3 mb 0.02 in0.5 mm 0.00 in0.0 mm 0.07 in1.8 mm
04:35 AM 54.9°F12.7°C 54.1°F12.3°C 97% Calm Calm -- 29.51 in999.3 mb 0.02 in0.5 mm 0.00 in0.0 mm 0.07 in1.8 mm
04:30 AM 54.9°F12.7°C 54.1°F12.3°C 97% Calm Calm -- 29.51 in999.3 mb 0.02 in0.5 mm 0.00 in0.0 mm 0.07 in1.8 mm
04:25 AM 54.8°F12.7°C 53.7°F12.1°C 96% Calm Calm -- 29.51 in999.3 mb 0.02 in0.5 mm 0.00 in0.0 mm 0.07 in1.8 mm
04:20 AM 54.8°F12.7°C 53.7°F12.1°C 96% Calm Calm -- 29.51 in999.3 mb 0.02 in0.5 mm 0.00 in0.0 mm 0.07 in1.8 mm
04:15 AM 54.8°F12.7°C 53.7°F12.1°C 96% Calm Calm -- 29.51 in999.3 mb 0.03 in0.8 mm 0.00 in0.0 mm 0.07 in1.8 mm
04:10 AM 54.8°F12.7°C 53.7°F12.1°C 96% Calm Calm -- 29.51 in999.3 mb 0.03 in0.8 mm 0.12 in3.0 mm 0.07 in1.8 mm
04:05 AM 54.8°F12.7°C 53.7°F12.1°C 96% Calm Calm -- 29.51 in999.3 mb 0.02 in0.5 mm 0.00 in0.0 mm 0.06 in1.5 mm
04:00 AM 54.8°F12.7°C 53.7°F12.1°C 96% Calm Calm 1.0 mph1.6 kmh 29.51 in999.3 mb 0.02 in0.5 mm 0.00 in0.0 mm 0.06 in1.5 mm
03:55 AM 54.8°F12.7°C 53.7°F12.1°C 96% Calm Calm 1.0 mph1.6 kmh 29.51 in999.3 mb 0.02 in0.5 mm 0.00 in0.0 mm 0.06 in1.5 mm
03:50 AM 54.8°F12.7°C 53.7°F12.1°C 96% Calm Calm -- 29.51 in999.3 mb 0.02 in0.5 mm 0.00 in0.0 mm 0.06 in1.5 mm
03:45 AM 54.8°F12.7°C 53.7°F12.1°C 96% Calm Calm 2.0 mph3.2 kmh 29.51 in999.3 mb 0.02 in0.5 mm 0.12 in3.0 mm 0.06 in1.5 mm
03:40 AM 54.8°F12.7°C 53.7°F12.1°C 96% Calm Calm 2.0 mph3.2 kmh 29.51 in999.3 mb 0.01 in0.3 mm 0.00 in0.0 mm 0.05 in1.3 mm
03:35 AM 54.8°F12.7°C 53.7°F12.1°C 96% Calm Calm 2.0 mph3.2 kmh 29.51 in999.3 mb 0.02 in0.5 mm 0.00 in0.0 mm 0.05 in1.3 mm
03:30 AM 54.8°F12.7°C 53.7°F12.1°C 96% Calm Calm -- 29.51 in999.3 mb 0.02 in0.5 mm 0.00 in0.0 mm 0.05 in1.3 mm
03:25 AM 54.8°F12.7°C 53.7°F12.1°C 96% Calm Calm -- 29.51 in999.3 mb 0.02 in0.5 mm 0.00 in0.0 mm 0.05 in1.3 mm
03:20 AM 54.9°F12.7°C 53.8°F12.1°C 96% Calm Calm -- 29.51 in999.3 mb 0.02 in0.5 mm 0.12 in3.0 mm 0.05 in1.3 mm
03:15 AM 54.9°F12.7°C 53.8°F12.1°C 96% Calm Calm 1.0 mph1.6 kmh 29.51 in999.3 mb 0.01 in0.3 mm 0.00 in0.0 mm 0.04 in1.0 mm
03:10 AM 55.0°F12.8°C 53.9°F12.2°C 96% Calm Calm 1.0 mph1.6 kmh 29.51 in999.3 mb 0.01 in0.3 mm 0.00 in0.0 mm 0.04 in1.0 mm
03:05 AM 55.0°F12.8°C 53.9°F12.2°C 96% Calm Calm 2.0 mph3.2 kmh 29.51 in999.3 mb 0.01 in0.3 mm 0.00 in0.0 mm 0.04 in1.0 mm
03:00 AM 55.0°F12.8°C 53.9°F12.2°C 96% Calm Calm 2.0 mph3.2 kmh 29.51 in999.3 mb 0.01 in0.3 mm 0.00 in0.0 mm 0.04 in1.0 mm
02:55 AM 55.0°F12.8°C 53.9°F12.2°C 96% Calm Calm 1.0 mph1.6 kmh 29.51 in999.3 mb 0.02 in0.5 mm 0.00 in0.0 mm 0.04 in1.0 mm
02:50 AM 54.9°F12.7°C 53.5°F11.9°C 95% Calm Calm 1.0 mph1.6 kmh 29.51 in999.3 mb 0.02 in0.5 mm 0.00 in0.0 mm 0.04 in1.0 mm
02:45 AM 54.9°F12.7°C 53.5°F11.9°C 95% Calm Calm 2.0 mph3.2 kmh 29.51 in999.3 mb 0.03 in0.8 mm 0.00 in0.0 mm 0.04 in1.0 mm
02:40 AM 54.9°F12.7°C 53.5°F11.9°C 95% Calm Calm 2.0 mph3.2 kmh 29.51 in999.3 mb 0.03 in0.8 mm 0.12 in3.0 mm 0.04 in1.0 mm
02:35 AM 55.0°F12.8°C 53.6°F12.0°C 95% Calm Calm 1.0 mph1.6 kmh 29.51 in999.3 mb 0.02 in0.5 mm 0.00 in0.0 mm 0.03 in0.8 mm
02:30 AM 55.0°F12.8°C 53.6°F12.0°C 95% Calm Calm -- 29.51 in999.3 mb 0.02 in0.5 mm 0.00 in0.0 mm 0.03 in0.8 mm
02:25 AM 55.0°F12.8°C 53.6°F12.0°C 95% Calm Calm -- 29.51 in999.3 mb 0.02 in0.5 mm 0.00 in0.0 mm 0.03 in0.8 mm
02:20 AM 55.0°F12.8°C 53.6°F12.0°C 95% Calm Calm -- 29.51 in999.3 mb 0.02 in0.5 mm 0.00 in0.0 mm 0.03 in0.8 mm
02:15 AM 55.0°F12.8°C 53.6°F12.0°C 95% Calm Calm 1.0 mph1.6 kmh 29.51 in999.3 mb 0.03 in0.8 mm 0.00 in0.0 mm 0.03 in0.8 mm
02:10 AM 55.0°F12.8°C 53.6°F12.0°C 95% Calm Calm 2.0 mph3.2 kmh 29.51 in999.3 mb 0.03 in0.8 mm 0.00 in0.0 mm 0.03 in0.8 mm
02:05 AM 55.0°F12.8°C 53.6°F12.0°C 95% Calm Calm 2.0 mph3.2 kmh 29.51 in999.3 mb 0.03 in0.8 mm 0.00 in0.0 mm 0.03 in0.8 mm
02:00 AM 55.0°F12.8°C 53.6°F12.0°C 95% Calm Calm 2.0 mph3.2 kmh 29.51 in999.3 mb 0.03 in0.8 mm 0.01 in0.3 mm 0.03 in0.8 mm
01:55 AM 55.0°F12.8°C 53.6°F12.0°C 95% Calm Calm 2.0 mph3.2 kmh 29.51 in999.3 mb 0.02 in0.5 mm 0.00 in0.0 mm 0.02 in0.5 mm
01:50 AM 55.0°F12.8°C 53.6°F12.0°C 95% 1.0 mph SE1.6 kmh SE 3.0 mph4.8 kmh 29.51 in999.3 mb 0.02 in0.5 mm 0.12 in3.0 mm 0.02 in0.5 mm
01:45 AM 55.1°F12.8°C 53.4°F11.9°C 94% 1.0 mph SE1.6 kmh SE 3.0 mph4.8 kmh 29.51 in999.3 mb 0.01 in0.3 mm 0.00 in0.0 mm 0.01 in0.3 mm
01:40 AM 55.1°F12.8°C 53.4°F11.9°C 94% 1.0 mph SE1.6 kmh SE 2.0 mph3.2 kmh 29.51 in999.3 mb 0.01 in0.3 mm 0.00 in0.0 mm 0.01 in0.3 mm
01:35 AM 55.1°F12.8°C 53.4°F11.9°C 94% Calm Calm 3.0 mph4.8 kmh 29.51 in999.3 mb 0.01 in0.3 mm 0.00 in0.0 mm 0.01 in0.3 mm
01:30 AM 55.1°F12.8°C 53.4°F11.9°C 94% Calm Calm 3.0 mph4.8 kmh 29.51 in999.3 mb 0.01 in0.3 mm 0.00 in0.0 mm 0.01 in0.3 mm
01:25 AM 55.1°F12.8°C 53.1°F11.7°C 93% Calm Calm 2.0 mph3.2 kmh 29.51 in999.3 mb 0.01 in0.3 mm 0.00 in0.0 mm 0.01 in0.3 mm
01:20 AM 55.2°F12.9°C 53.2°F11.8°C 93% Calm Calm 2.0 mph3.2 kmh 29.51 in999.3 mb 0.01 in0.3 mm 0.12 in3.0 mm 0.01 in0.3 mm
01:15 AM 55.3°F12.9°C 53.3°F11.8°C 93% Calm Calm 3.0 mph4.8 kmh 29.51 in999.3 mb 0.00 in0.0 mm 0.00 in0.0 mm 0.00 in0.0 mm
01:10 AM 55.3°F12.9°C 53.3°F11.8°C 93% Calm Calm 3.0 mph4.8 kmh 29.51 in999.3 mb 0.00 in0.0 mm 0.00 in0.0 mm 0.00 in0.0 mm
01:05 AM 55.4°F13.0°C 53.1°F11.7°C 92% Calm Calm 2.0 mph3.2 kmh 29.51 in999.3 mb 0.00 in0.0 mm 0.00 in0.0 mm 0.00 in0.0 mm
01:00 AM 55.5°F13.1°C 53.2°F11.8°C 92% 1.0 mph SE1.6 kmh SE 2.0 mph3.2 kmh 29.51 in999.3 mb 0.00 in0.0 mm 0.00 in0.0 mm 0.00 in0.0 mm
12:55 AM 55.6°F13.1°C 53.3°F11.8°C 92% 1.0 mph SE1.6 kmh SE 4.0 mph6.4 kmh 29.51 in999.3 mb 0.00 in0.0 mm 0.00 in0.0 mm 0.00 in0.0 mm
12:50 AM 55.7°F13.2°C 53.4°F11.9°C 92% 1.0 mph SE1.6 kmh SE 4.0 mph6.4 kmh 29.51 in999.3 mb 0.00 in0.0 mm 0.00 in0.0 mm 0.00 in0.0 mm
12:45 AM 55.7°F13.2°C 53.1°F11.7°C 91% 1.0 mph SE1.6 kmh SE 4.0 mph6.4 kmh 29.51 in999.3 mb 0.00 in0.0 mm 0.00 in0.0 mm 0.00 in0.0 mm
12:40 AM 55.9°F13.3°C 53.3°F11.8°C 91% 1.0 mph ESE1.6 kmh ESE 4.0 mph6.4 kmh 29.51 in999.3 mb 0.00 in0.0 mm 0.00 in0.0 mm 0.00 in0.0 mm
12:35 AM 56.0°F13.3°C 53.4°F11.9°C 91% 1.0 mph ESE1.6 kmh ESE 3.0 mph4.8 kmh 29.50 in999.0 mb 0.00 in0.0 mm 0.00 in0.0 mm 0.00 in0.0 mm
12:30 AM 56.1°F13.4°C 53.5°F11.9°C 91% Calm Calm 3.0 mph4.8 kmh 29.50 in999.0 mb 0.00 in0.0 mm 0.00 in0.0 mm 0.00 in0.0 mm
12:25 AM 56.2°F13.4°C 53.6°F12.0°C 91% Calm Calm 3.0 mph4.8 kmh 29.50 in999.0 mb 0.00 in0.0 mm 0.00 in0.0 mm 0.00 in0.0 mm
12:20 AM 56.4°F13.6°C 53.8°F12.1°C 91% Calm Calm 3.0 mph4.8 kmh 29.50 in999.0 mb 0.00 in0.0 mm 0.00 in0.0 mm 0.00 in0.0 mm
12:15 AM 56.5°F13.6°C 53.9°F12.2°C 91% Calm Calm 3.0 mph4.8 kmh 29.50 in999.0 mb 0.00 in0.0 mm 0.00 in0.0 mm 0.00 in0.0 mm
12:10 AM 56.6°F13.7°C 53.7°F12.1°C 90% Calm Calm -- 29.50 in999.0 mb 0.00 in0.0 mm 0.00 in0.0 mm 0.00 in0.0 mm
12:05 AM 56.7°F13.7°C 53.8°F12.1°C 90% Calm Calm -- 29.50 in999.0 mb 0.00 in0.0 mm 0.00 in0.0 mm 0.00 in0.0 mm
12:00 AM 56.7°F13.7°C 53.5°F11.9°C 89% Calm Calm 1.0 mph1.6 kmh 29.50 in999.0 mb 0.00 in0.0 mm 0.00 in0.0 mm 0.00 in0.0 mm